ایروان, ارمنستان

12:23 PM AMT on مارس 01, 2015 (GMT +0400)
Zvartnots | Change Station
CLOSE
Current Station
Airport
Location: Zvartnots,
Elevation: 2838 ft
Nearby Weather Stations

Elev 2838 ft 40.15 °N, 44.40 °E | Updated 23 minutes ago

Partly Cloudy
ابرهاى پراكنده
52 °F
Feels Like 52 °F
N
4
باد متغير باد from جنوب غربی

امروز
High -- | Low -- °F
--% Chance of Precip.
دیروز
High -- | Low -- °F
Precip. -- در
7:36 AM 6:53 PM
Waxing Gibbous, 83% visible
فشار 29.98 در
ديد 6.2 مايل، ميل (در برابر كيلومتر
ابری Few 4600 ft
قطره شبنم 27 °F
رطوبت 38%
بارش باران 0.00 در
برف عمیق Not available.
مادون قرمز 5 out of 12
Pollen Not available.
تمیزی هوا Not available.
Flu Activity Not available.
METAR UDYZ 010800Z 23002MPS 190V270 9999 FEW046 11/M03 Q1015 R09/0///70 NOSIG

More Conditions Fewer Conditions

فشار 29.98 در
ديد 6.2 مايل، ميل (در برابر كيلومتر
ابری Few 4600 ft
قطره شبنم 27 °F
رطوبت 38%
بارش باران 0.00 در
برف عمیق Not available.
مادون قرمز 5 out of 12
Pollen Not available.
تمیزی هوا Not available.
Flu Activity Not available.
METAR UDYZ 010800Z 23002MPS 190V270 9999 FEW046 11/M03 Q1015 R09/0///70 NOSIG

More Conditions Fewer Conditions

10-Day Weather Forecast

Almanac

ستاره شناسی

Mar. 01, 2015 Rise Set
وقت حقیقی
تاریک و روشن اجتماعی
تاریک روشن دریایی
شفق و فلق نجومی
ماه
میزان روشنایی روز
طول روز
Tomorrow will be .
, % of the Moon is Illuminated

Today's Extremes

Country Highs Country Lows

Community

WunderPhotos

Upload Photos

1,801,350 photos uploaded!

WunderBlogs® & News

Nearby

تمیزی هوا

  تمیزی هوا AQ Index آلاینده
Not available.

عمق برف

Station Depth Elevation

Earthquake Activity

شهر Distance Mag. Time & Date
Minimum magnitude displayed is 2.5.

Coastal Water Temperatures

منطقه درجه حرارت

Nearby Weather Stations